Pagrindinis puslapis
METAR-TAF:

METAR-TAF

Oro uostai :

Stambulas, Turkija

platuma: 41-16-31N, ilguma: 028-45-07E, Aukštis: 99 m

Dabartinis oras

Ataskaita buvo paskelbta 26 minutes, ne 23:20 UTC
Vėjas 21 kt iš Rytų/Šiaurės Rytų
Temperatūra 22°C
Drėgmė 83%
Slėgis 1018 hPa
Matomumas 10 km arba daugiau
Išsisklaidę debesys ne aukštis 2500 ft

METAR: LTFM 182320Z 06021KT 9999 SCT025 22/19 Q1018 NOSIG RMK RWY17L 06018KT RWY34L 04017KT RWY16R 05020KT

Laikas: 02:46 (23:46 UTC)

Prognozė

Ataskaita buvo paskelbta 1 valandą ir 6 minutes, ne 22:40 UTC
Prognozė galioja nuo 19 metu 00 UTC su 20 metu 06 UTC
Vėjas 22 kt iš Rytų/Šiaurės Rytų
Matomumas 10 km arba daugiau
Išsisklaidę debesys ne aukštis 3000 ft
Tapsmas
nuo 19 metu 00 UTC su 19 metu 03 UTC
Su prošvaistėmis ne aukštis 2500 ft
Tapsmas
nuo 19 metu 10 UTC su 19 metu 13 UTC
Išsisklaidę debesys ne aukštis 3000 ft
Tapsmas
nuo 19 metu 13 UTC su 19 metu 16 UTC
Vėjas 12 kt iš Rytų/Šiaurės Rytų

TAF: LTFM 182240Z 1900/2006 06022KT 9999 SCT030 BECMG 1900/1903 BKN025 BECMG 1910/1913 SCT030 BECMG 1913/1916 06012KT

Orai ataskaitas ir orų prognozės (METAR, TAF).

turimą stotys yra geltonos ir raudonos taškus žemėlapyje.

Perkelti pele per norėdami pamatyti stoties vardą.

Tada spustelėkite, norėdami matyti oro stebėjimo ir prognozės.

Norėdami pakeisti žemėlapį: spustelėkite ant žalios mygtukų su juodo kryžiaus žemyn,; žalią mygtuką su brūkšneliu, jei norite nutolinti; arba žalių rodyklių gretimoms žemėlapius.


METAR-TAF: